Time;durP1;ratioP1;P1;durP2;ratioP2;P2;SDS_P1;SDS_P2;PMS_P1;PMS_P2;Temp;Humidity;BMP_temperature;BMP_pressure;BME280_temperature;BME280_humidity;BME280_pressure;Samples;Min_cycle;Max_cycle;Signal;HPM_P1;HPM_P2
2023/05/12 00:00:20;;;;;;;108.95;48.58;;;;;;;-148.88;100.00;-17125.47;4998339;28;20030;-81
2023/05/12 00:02:45;;;;;;;101.13;46.85;;;;;;;-148.88;100.00;-17125.47;5014998;28;20379;-82
2023/05/12 00:05:10;;;;;;;108.28;46.88;;;;;;;-148.88;100.00;-17125.47;4999884;28;20502;-83
2023/05/12 00:07:36;;;;;;;104.35;46.85;;;;;;;-148.88;100.00;-17125.47;5022640;28;20089;-83
2023/05/12 00:10:02;;;;;;;104.78;47.28;;;;;;;-148.88;100.00;-17125.47;5005916;28;20021;-83
2023/05/12 00:12:27;;;;;;;93.88;45.75;;;;;;;-148.88;100.00;-17125.47;5026433;28;20026;-83
2023/05/12 00:14:53;;;;;;;92.53;43.72;;;;;;;-148.88;100.00;-17125.47;5027263;28;20041;-83
2023/05/12 00:17:18;;;;;;;89.35;43.65;;;;;;;-148.88;100.00;-17125.47;5026795;28;20030;-82
2023/05/12 00:19:43;;;;;;;86.35;42.55;;;;;;;-148.88;100.00;-17125.47;5008663;28;20026;-83
2023/05/12 00:22:10;;;;;;;86.63;43.05;;;;;;;-148.88;100.00;-17125.47;5007864;28;20032;-82
2023/05/12 00:24:35;;;;;;;85.68;41.38;;;;;;;-148.88;100.00;-17125.47;5008247;28;20018;-83
2023/05/12 00:27:01;;;;;;;82.95;42.28;;;;;;;-148.88;100.00;-17125.47;5009265;28;20036;-82
2023/05/12 00:29:26;;;;;;;78.55;42.13;;;;;;;-148.88;100.00;-17125.47;5003495;28;20030;-81
2023/05/12 00:31:51;;;;;;;89.38;43.15;;;;;;;-148.88;100.00;-17125.47;5001161;28;20018;-81
2023/05/12 00:34:17;;;;;;;90.97;42.08;;;;;;;-148.88;100.00;-17125.47;5000827;28;20030;-82
2023/05/12 00:36:42;;;;;;;93.28;45.25;;;;;;;-148.88;100.00;-17125.47;5000226;28;20466;-82
2023/05/12 00:39:08;;;;;;;95.20;45.95;;;;;;;-148.88;100.00;-17125.47;5017487;28;20037;-81
2023/05/12 00:41:34;;;;;;;92.70;45.58;;;;;;;-148.88;100.00;-17125.47;5000883;28;20062;-81
2023/05/12 00:43:59;;;;;;;96.47;45.08;;;;;;;-148.88;100.00;-17125.47;5005214;28;20013;-82
2023/05/12 00:46:26;;;;;;;94.35;44.78;;;;;;;-148.88;100.00;-17125.47;5006113;28;20084;-82
2023/05/12 00:48:51;;;;;;;101.70;44.95;;;;;;;-148.88;100.00;-17125.47;5006332;28;20026;-82
2023/05/12 00:51:17;;;;;;;85.40;41.50;;;;;;;-148.88;100.00;-17125.47;5006870;28;20091;-82
2023/05/12 00:53:42;;;;;;;82.30;42.10;;;;;;;-148.88;100.00;-17125.47;5024703;28;20339;-82
2023/05/12 00:56:09;;;;;;;80.93;41.33;;;;;;;-148.88;100.00;-17125.47;5024031;28;20072;-82
2023/05/12 00:58:34;;;;;;;80.85;41.42;;;;;;;-148.88;100.00;-17125.47;5024314;28;20108;-82
2023/05/12 01:00:59;;;;;;;82.88;41.30;;;;;;;-148.88;100.00;-17125.47;5024299;28;20064;-82
2023/05/12 01:03:25;;;;;;;90.60;41.50;;;;;;;-148.88;100.00;-17125.47;5024000;28;20069;-82
2023/05/12 01:06:36;;;;;;;78.45;41.55;;;;;;;-148.88;100.00;-17125.47;5018823;28;20029;-81
2023/05/12 01:09:02;;;;;;;73.88;39.13;;;;;;;-148.88;100.00;-17125.47;4884907;29;20108;-82
2023/05/12 01:11:28;;;;;;;66.82;38.80;;;;;;;-148.88;100.00;-17125.47;4900493;29;20111;-82
2023/05/12 01:13:53;;;;;;;71.18;38.50;;;;;;;-148.88;100.00;-17125.47;4937726;28;20061;-82
2023/05/12 01:16:24;;;;;;;62.63;35.17;;;;;;;-148.88;100.00;-17125.47;5016391;28;20395;-82
2023/05/12 01:18:53;;;;;;;54.78;32.97;;;;;;;-148.88;100.00;-17125.47;5001754;28;20025;-83
2023/05/12 01:21:19;;;;;;;62.88;32.92;;;;;;;-148.88;100.00;-17125.47;5006499;28;20029;-83
2023/05/12 01:23:50;;;;;;;54.47;31.30;;;;;;;-148.88;100.00;-17125.47;5023956;28;20416;-83
2023/05/12 01:26:16;;;;;;;52.00;30.67;;;;;;;-148.88;100.00;-17125.47;5005520;28;20022;-82
2023/05/12 01:28:42;;;;;;;114.88;31.98;;;;;;;-148.88;100.00;-17125.47;5005267;28;20060;-82
2023/05/12 01:31:08;;;;;;;364.88;46.47;;;;;;;-148.88;100.00;-17125.47;5005755;28;20037;-82
2023/05/12 01:33:35;;;;;;;203.40;34.97;;;;;;;-148.88;100.00;-17125.47;5005753;28;20017;-82
2023/05/12 01:36:00;;;;;;;124.75;33.33;;;;;;;-148.88;100.00;-17125.47;5004934;28;20037;-83
2023/05/12 01:38:26;;;;;;;48.33;29.58;;;;;;;-148.88;100.00;-17125.47;5023183;28;20034;-83
2023/05/12 01:40:51;;;;;;;109.40;35.33;;;;;;;-148.88;100.00;-17125.47;5002553;28;20088;-82
2023/05/12 01:43:17;;;;;;;63.05;33.58;;;;;;;-148.88;100.00;-17125.47;4997728;28;20014;-82
2023/05/12 01:45:44;;;;;;;54.78;32.67;;;;;;;-148.88;100.00;-17125.47;5015469;28;20104;-82
2023/05/12 01:48:11;;;;;;;58.05;33.10;;;;;;;-148.88;100.00;-17125.47;5015632;28;20050;-82
2023/05/12 01:50:36;;;;;;;58.63;34.50;;;;;;;-148.88;100.00;-17125.47;4998026;28;20022;-81
2023/05/12 01:53:02;;;;;;;106.45;39.72;;;;;;;-148.88;100.00;-17125.47;4997728;28;20109;-81
2023/05/12 01:55:27;;;;;;;111.20;42.38;;;;;;;-148.88;100.00;-17125.47;4999444;28;20067;-82
2023/05/12 01:57:53;;;;;;;276.70;49.90;;;;;;;-148.88;100.00;-17125.47;5003033;28;20120;-81
2023/05/12 02:00:18;;;;;;;136.73;40.85;;;;;;;-148.88;100.00;-17125.47;5013944;28;20037;-80
2023/05/12 02:02:43;;;;;;;300.55;54.33;;;;;;;-148.88;100.00;-17125.47;5014452;28;20026;-80
2023/05/12 02:05:09;;;;;;;133.85;45.40;;;;;;;-148.88;100.00;-17125.47;5014199;28;20020;-80
2023/05/12 02:07:34;;;;;;;380.77;63.30;;;;;;;-148.88;100.00;-17125.47;5014925;28;20475;-80
2023/05/12 02:10:00;;;;;;;397.85;62.63;;;;;;;-148.88;100.00;-17125.47;5014656;28;20129;-80
2023/05/12 02:12:25;;;;;;;311.00;51.13;;;;;;;-148.88;100.00;-17125.47;5016231;28;20018;-80
2023/05/12 02:14:50;;;;;;;397.05;55.55;;;;;;;-148.88;100.00;-17125.47;5016622;28;20049;-81
2023/05/12 02:17:16;;;;;;;335.90;51.50;;;;;;;-148.88;100.00;-17125.47;5008658;28;20029;-80
2023/05/12 02:19:42;;;;;;;358.20;54.13;;;;;;;-148.88;100.00;-17125.47;5017792;28;20390;-80
2023/05/12 02:22:07;;;;;;;330.80;50.15;;;;;;;-148.88;100.00;-17125.47;4999617;28;20109;-80
2023/05/12 02:24:33;;;;;;;277.85;48.78;;;;;;;-148.88;100.00;-17125.47;4999966;28;20389;-80
2023/05/12 02:26:58;;;;;;;196.45;43.65;;;;;;;-148.88;100.00;-17125.47;4999123;28;20399;-80
2023/05/12 02:29:23;;;;;;;189.95;44.20;;;;;;;-148.88;100.00;-17125.47;4998983;28;20093;-79
2023/05/12 02:31:49;;;;;;;327.27;55.00;;;;;;;-148.88;100.00;-17125.47;5000410;28;20026;-80
2023/05/12 02:34:14;;;;;;;168.57;43.45;;;;;;;-148.88;100.00;-17125.47;5015224;28;20033;-80
2023/05/12 02:36:40;;;;;;;178.13;43.22;;;;;;;-148.88;100.00;-17125.47;5016047;28;20028;-80
2023/05/12 02:39:05;;;;;;;229.65;47.90;;;;;;;-148.88;100.00;-17125.47;5016662;28;20025;-80
2023/05/12 02:41:30;;;;;;;221.57;44.67;;;;;;;-148.88;100.00;-17125.47;5017281;28;20044;-80
2023/05/12 02:43:56;;;;;;;220.32;45.88;;;;;;;-148.88;100.00;-17125.47;5016886;28;20041;-80
2023/05/12 02:46:21;;;;;;;213.48;46.70;;;;;;;-148.88;100.00;-17125.47;5017062;28;20018;-80
2023/05/12 02:48:47;;;;;;;147.68;43.20;;;;;;;-148.88;100.00;-17125.47;5015361;28;20009;-80
2023/05/12 02:51:12;;;;;;;265.40;46.53;;;;;;;-148.88;100.00;-17125.47;5015874;28;20061;-81
2023/05/12 02:53:37;;;;;;;189.90;46.47;;;;;;;-148.88;100.00;-17125.47;5004997;28;20018;-79
2023/05/12 02:56:03;;;;;;;162.50;45.58;;;;;;;-148.88;100.00;-17125.47;4997864;28;20025;-79
2023/05/12 02:58:28;;;;;;;228.32;50.25;;;;;;;-148.88;100.00;-17125.47;5015020;28;20131;-79
2023/05/12 03:00:54;;;;;;;226.00;50.53;;;;;;;-148.88;100.00;-17125.47;4997615;28;20029;-79
2023/05/12 03:03:19;;;;;;;246.50;52.97;;;;;;;-148.88;100.00;-17125.47;4996767;28;20579;-79
2023/05/12 03:05:45;;;;;;;208.52;54.13;;;;;;;-148.88;100.00;-17125.47;4996646;28;20610;-79
2023/05/12 03:08:10;;;;;;;153.00;50.70;;;;;;;-148.88;100.00;-17125.47;4996063;28;20025;-79
2023/05/12 03:10:36;;;;;;;208.30;57.17;;;;;;;-148.88;100.00;-17125.47;5013630;28;20028;-80
2023/05/12 03:13:02;;;;;;;118.68;49.08;;;;;;;-148.88;100.00;-17125.47;5013709;28;20030;-80
2023/05/12 03:15:27;;;;;;;122.80;50.25;;;;;;;-148.88;100.00;-17125.47;5031806;28;20036;-80
2023/05/12 03:17:52;;;;;;;138.77;51.78;;;;;;;-148.88;100.00;-17125.47;5014155;28;20133;-80
2023/05/12 03:20:18;;;;;;;199.98;55.45;;;;;;;-148.88;100.00;-17125.47;5014846;28;20022;-80
2023/05/12 03:22:44;;;;;;;154.45;54.88;;;;;;;-148.88;100.00;-17125.47;5014168;28;20080;-79
2023/05/12 03:25:11;;;;;;;121.38;51.13;;;;;;;-148.88;100.00;-17125.47;5013817;28;20483;-80
2023/05/12 03:27:36;;;;;;;126.65;51.65;;;;;;;-148.88;100.00;-17125.47;5015064;28;20030;-80
2023/05/12 03:30:03;;;;;;;127.13;52.80;;;;;;;-148.88;100.00;-17125.47;5005046;28;20030;-80
2023/05/12 03:32:29;;;;;;;126.55;50.45;;;;;;;-148.88;100.00;-17125.47;5018858;28;20072;-80
2023/05/12 03:34:55;;;;;;;122.03;50.85;;;;;;;-148.88;100.00;-17125.47;5000199;28;20026;-80
2023/05/12 03:37:20;;;;;;;123.13;50.75;;;;;;;-148.88;100.00;-17125.47;4999760;28;20072;-80
2023/05/12 03:39:46;;;;;;;114.32;49.65;;;;;;;-148.88;100.00;-17125.47;5001167;28;20026;-80
2023/05/12 03:42:12;;;;;;;111.20;49.05;;;;;;;-148.88;100.00;-17125.47;4998391;28;20033;-79
2023/05/12 03:44:38;;;;;;;102.68;48.38;;;;;;;-148.88;100.00;-17125.47;5014039;28;20056;-80
2023/05/12 03:47:03;;;;;;;111.63;47.65;;;;;;;-148.88;100.00;-17125.47;5030076;28;20030;-80
2023/05/12 03:49:29;;;;;;;98.40;47.20;;;;;;;-148.88;100.00;-17125.47;5018362;28;20089;-80
2023/05/12 03:51:54;;;;;;;95.03;45.50;;;;;;;-148.88;100.00;-17125.47;5018336;28;20037;-80
2023/05/12 03:54:19;;;;;;;97.65;44.72;;;;;;;-148.88;100.00;-17125.47;5018773;28;20022;-80
2023/05/12 03:56:45;;;;;;;104.90;47.75;;;;;;;-148.88;100.00;-17125.47;5019313;28;20426;-80
2023/05/12 03:59:10;;;;;;;104.10;48.25;;;;;;;-148.88;100.00;-17125.47;5018901;28;20021;-82
2023/05/12 04:01:36;;;;;;;107.25;47.13;;;;;;;-148.88;100.00;-17125.47;5019265;28;20090;-81
2023/05/12 04:04:01;;;;;;;106.20;49.47;;;;;;;-148.88;100.00;-17125.47;5019374;28;20021;-81
2023/05/12 04:06:27;;;;;;;106.63;49.00;;;;;;;-148.88;100.00;-17125.47;5022307;28;20025;-80
2023/05/12 04:08:52;;;;;;;100.20;48.53;;;;;;;-148.88;100.00;-17125.47;5001334;28;20022;-80
2023/05/12 04:11:18;;;;;;;103.10;48.50;;;;;;;-148.88;100.00;-17125.47;5000774;28;20030;-80
2023/05/12 04:13:43;;;;;;;109.55;49.28;;;;;;;-148.88;100.00;-17125.47;5018375;28;20030;-81
2023/05/12 04:16:08;;;;;;;101.03;47.35;;;;;;;-148.88;100.00;-17125.47;5000438;28;20024;-79
2023/05/12 04:18:35;;;;;;;103.57;48.42;;;;;;;-148.88;100.00;-17125.47;4999754;28;20487;-79
2023/05/12 04:21:01;;;;;;;109.72;48.75;;;;;;;-148.88;100.00;-17125.47;5000125;28;20052;-79
2023/05/12 04:23:27;;;;;;;99.13;47.88;;;;;;;-148.88;100.00;-17125.47;5010557;28;20049;-80
2023/05/12 04:25:52;;;;;;;97.72;47.22;;;;;;;-148.88;100.00;-17125.47;5016194;28;20025;-80
2023/05/12 04:28:18;;;;;;;99.32;48.83;;;;;;;-148.88;100.00;-17125.47;5016554;28;20089;-80
2023/05/12 04:30:43;;;;;;;100.30;48.55;;;;;;;-148.88;100.00;-17125.47;5017198;28;20056;-81
2023/05/12 04:33:09;;;;;;;105.28;49.08;;;;;;;-148.88;100.00;-17125.47;5034956;28;20094;-81
2023/05/12 04:35:34;;;;;;;100.45;46.75;;;;;;;-148.88;100.00;-17125.47;5019121;28;20076;-81
2023/05/12 04:38:01;;;;;;;98.78;48.42;;;;;;;-148.88;100.00;-17125.47;5019482;28;20010;-81
2023/05/12 04:40:26;;;;;;;101.03;48.17;;;;;;;-148.88;100.00;-17125.47;5020382;28;20014;-83
2023/05/12 04:42:52;;;;;;;95.20;46.47;;;;;;;-148.88;100.00;-17125.47;5020745;28;20048;-79
2023/05/12 04:45:17;;;;;;;100.15;47.10;;;;;;;-148.88;100.00;-17125.47;5001628;28;20024;-80
2023/05/12 04:47:43;;;;;;;89.72;45.45;;;;;;;-148.88;100.00;-17125.47;5019029;28;20030;-79
2023/05/12 04:50:09;;;;;;;85.78;42.65;;;;;;;-148.88;100.00;-17125.47;5017399;28;20537;-80
2023/05/12 04:52:35;;;;;;;95.03;44.67;;;;;;;-148.88;100.00;-17125.47;5017894;28;20034;-80
2023/05/12 04:55:00;;;;;;;88.07;43.53;;;;;;;-148.88;100.00;-17125.47;5017073;28;20029;-79
2023/05/12 04:57:25;;;;;;;78.63;43.25;;;;;;;-148.88;100.00;-17125.47;4999185;28;20033;-80
2023/05/12 04:59:51;;;;;;;81.47;42.05;;;;;;;-148.88;100.00;-17125.47;5026657;28;20025;-81
2023/05/12 05:02:16;;;;;;;76.53;41.88;;;;;;;-148.88;100.00;-17125.47;5015041;28;20014;-81
2023/05/12 05:04:41;;;;;;;81.38;42.20;;;;;;;-148.88;100.00;-17125.47;5016494;28;20032;-80
2023/05/12 05:07:07;;;;;;;72.15;41.45;;;;;;;-148.88;100.00;-17125.47;5017049;28;20045;-80
2023/05/12 05:09:33;;;;;;;69.00;40.17;;;;;;;-148.88;100.00;-17125.47;5017692;28;20026;-81
2023/05/12 05:11:58;;;;;;;75.45;41.25;;;;;;;-148.88;100.00;-17125.47;5016512;28;20026;-80
2023/05/12 05:14:23;;;;;;;64.95;38.05;;;;;;;-148.88;100.00;-17125.47;5035381;28;20036;-81
2023/05/12 05:16:49;;;;;;;67.45;39.28;;;;;;;-148.88;100.00;-17125.47;5036044;28;20030;-80
2023/05/12 05:19:14;;;;;;;58.30;36.10;;;;;;;-148.88;100.00;-17125.47;5009267;28;20030;-80
2023/05/12 05:21:40;;;;;;;61.13;37.50;;;;;;;-148.88;100.00;-17125.47;5004769;28;20028;-80
2023/05/12 05:24:05;;;;;;;61.10;36.88;;;;;;;-148.88;100.00;-17125.47;5021268;28;20096;-80
2023/05/12 05:26:31;;;;;;;58.05;35.92;;;;;;;-148.88;100.00;-17125.47;5021039;28;20057;-80
2023/05/12 05:28:56;;;;;;;58.17;35.25;;;;;;;-148.88;100.00;-17125.47;5019566;28;20030;-80
2023/05/12 05:31:22;;;;;;;57.08;34.75;;;;;;;-148.88;100.00;-17125.47;5017366;28;20468;-80
2023/05/12 05:33:48;;;;;;;51.47;33.42;;;;;;;-148.88;100.00;-17125.47;5015911;28;20479;-80
2023/05/12 05:36:13;;;;;;;49.88;32.95;;;;;;;-148.88;100.00;-17125.47;5004347;28;20029;-80
2023/05/12 05:38:38;;;;;;;50.13;32.08;;;;;;;-148.88;100.00;-17125.47;5015160;28;20033;-80
2023/05/12 05:41:04;;;;;;;48.97;31.70;;;;;;;-148.88;100.00;-17125.47;5032941;28;20129;-80
2023/05/12 05:43:30;;;;;;;46.97;31.23;;;;;;;-148.88;100.00;-17125.47;5016610;28;20026;-80
2023/05/12 05:45:56;;;;;;;51.13;32.75;;;;;;;-148.88;100.00;-17125.47;5033950;28;20006;-80
2023/05/12 05:48:23;;;;;;;53.45;32.10;;;;;;;-148.88;100.00;-17125.47;5017358;28;20002;-81
2023/05/12 05:50:50;;;;;;;56.20;33.80;;;;;;;-148.88;100.00;-17125.47;5033173;28;20029;-81
2023/05/12 05:53:17;;;;;;;51.97;33.00;;;;;;;-148.88;100.00;-17125.47;5016258;28;20093;-80
2023/05/12 05:55:42;;;;;;;49.97;32.30;;;;;;;-148.88;100.00;-17125.47;5000151;28;20091;-81
2023/05/12 05:58:08;;;;;;;53.72;33.05;;;;;;;-148.88;100.00;-17125.47;5017236;28;20030;-81
2023/05/12 06:00:33;;;;;;;56.70;32.50;;;;;;;-148.88;100.00;-17125.47;5017085;28;20029;-81
2023/05/12 06:02:59;;;;;;;54.63;31.20;;;;;;;-148.88;100.00;-17125.47;5017003;28;20014;-80
2023/05/12 06:05:24;;;;;;;52.25;31.15;;;;;;;-148.88;100.00;-17125.47;5018056;28;20025;-81
2023/05/12 06:07:50;;;;;;;46.45;28.98;;;;;;;-148.88;100.00;-17125.47;5016918;28;20112;-80
2023/05/12 06:10:15;;;;;;;51.78;29.95;;;;;;;-148.88;100.00;-17125.47;5015660;28;20022;-80
2023/05/12 06:12:42;;;;;;;39.28;28.17;;;;;;;-148.88;100.00;-17125.47;5002327;28;20033;-81
2023/05/12 06:15:07;;;;;;;47.00;29.55;;;;;;;-148.88;100.00;-17125.47;5032807;28;20026;-81
2023/05/12 06:17:33;;;;;;;40.22;27.50;;;;;;;-148.88;100.00;-17125.47;5032095;28;20030;-81
2023/05/12 06:19:58;;;;;;;37.67;27.08;;;;;;;-148.88;100.00;-17125.47;5015820;28;20029;-80
2023/05/12 06:22:23;;;;;;;39.20;28.05;;;;;;;-148.88;100.00;-17125.47;5033829;28;20026;-81
2023/05/12 06:24:49;;;;;;;37.70;26.63;;;;;;;-148.88;100.00;-17125.47;5033553;28;20484;-81
2023/05/12 06:27:14;;;;;;;35.40;26.52;;;;;;;-148.88;100.00;-17125.47;5035064;28;20026;-81
2023/05/12 06:29:40;;;;;;;41.38;27.67;;;;;;;-148.88;100.00;-17125.47;5033044;28;20030;-81
2023/05/12 06:32:05;;;;;;;42.08;28.80;;;;;;;-148.88;100.00;-17125.47;5004749;28;20029;-81
2023/05/12 06:34:31;;;;;;;36.30;26.88;;;;;;;-148.88;100.00;-17125.47;5005557;28;20423;-80
2023/05/12 06:36:56;;;;;;;32.70;25.00;;;;;;;-148.88;100.00;-17125.47;5001060;28;20030;-80
2023/05/12 06:39:22;;;;;;;34.60;24.27;;;;;;;-148.88;100.00;-17125.47;5017024;28;20033;-80
2023/05/12 06:41:47;;;;;;;34.72;24.77;;;;;;;-148.88;100.00;-17125.47;5016330;28;20101;-80
2023/05/12 06:44:12;;;;;;;31.30;23.60;;;;;;;-148.88;100.00;-17125.47;4998017;28;20033;-80
2023/05/12 06:46:38;;;;;;;33.47;24.23;;;;;;;-148.88;100.00;-17125.47;5015919;28;20041;-80
2023/05/12 06:49:05;;;;;;;29.48;22.95;;;;;;;-148.88;100.00;-17125.47;5017169;28;20033;-81
2023/05/12 06:51:30;;;;;;;30.20;23.80;;;;;;;-148.88;100.00;-17125.47;5012231;28;20022;-81
2023/05/12 06:53:56;;;;;;;30.85;23.55;;;;;;;-148.88;100.00;-17125.47;5011624;28;20028;-81
2023/05/12 06:56:22;;;;;;;34.92;25.08;;;;;;;-148.88;100.00;-17125.47;5030056;28;20041;-80
2023/05/12 06:58:48;;;;;;;31.83;23.95;;;;;;;-148.88;100.00;-17125.47;5013089;28;20006;-80
2023/05/12 07:01:13;;;;;;;31.83;23.50;;;;;;;-148.88;100.00;-17125.47;5013061;28;20046;-80
2023/05/12 07:03:39;;;;;;;30.00;23.90;;;;;;;-148.88;100.00;-17125.47;5014286;28;20030;-80
2023/05/12 07:06:04;;;;;;;33.20;24.92;;;;;;;-148.88;100.00;-17125.47;5029039;28;20033;-80
2023/05/12 07:08:30;;;;;;;32.28;24.65;;;;;;;-148.88;100.00;-17125.47;5018180;28;20030;-80
2023/05/12 07:10:55;;;;;;;28.52;23.50;;;;;;;-148.88;100.00;-17125.47;5000500;28;20025;-80
2023/05/12 07:13:21;;;;;;;26.70;21.23;;;;;;;-148.88;100.00;-17125.47;5017226;28;20026;-80
2023/05/12 07:15:46;;;;;;;27.75;21.95;;;;;;;-148.88;100.00;-17125.47;5016991;28;20079;-80
2023/05/12 07:18:12;;;;;;;25.52;20.30;;;;;;;-148.88;100.00;-17125.47;4997947;28;20116;-79
2023/05/12 07:20:37;;;;;;;26.42;20.70;;;;;;;-148.88;100.00;-17125.47;5014549;28;20033;-80
2023/05/12 07:23:03;;;;;;;25.25;19.65;;;;;;;-148.88;100.00;-17125.47;5014253;28;20101;-80
2023/05/12 07:25:29;;;;;;;25.70;20.08;;;;;;;-148.88;100.00;-17125.47;5014227;28;20450;-80
2023/05/12 07:27:54;;;;;;;23.05;19.52;;;;;;;-148.88;100.00;-17125.47;5011445;28;20021;-81
2023/05/12 07:30:21;;;;;;;24.15;19.90;;;;;;;-148.88;100.00;-17125.47;5011670;28;20029;-81
2023/05/12 07:32:46;;;;;;;25.27;20.10;;;;;;;-148.88;100.00;-17125.47;5029070;28;20116;-81
2023/05/12 07:35:12;;;;;;;24.55;18.90;;;;;;;-148.88;100.00;-17125.47;5012515;28;20022;-81
2023/05/12 07:37:38;;;;;;;20.27;18.05;;;;;;;-148.88;100.00;-17125.47;5013154;28;20026;-81
2023/05/12 07:40:03;;;;;;;20.15;16.73;;;;;;;-148.88;100.00;-17125.47;5031208;28;20033;-81
2023/05/12 07:42:29;;;;;;;22.65;18.20;;;;;;;-148.88;100.00;-17125.47;5027141;28;20056;-80
2023/05/12 07:44:54;;;;;;;19.10;16.90;;;;;;;-148.88;100.00;-17125.47;5019827;28;20078;-80
2023/05/12 07:47:20;;;;;;;17.33;14.85;;;;;;;-148.88;100.00;-17125.47;5019506;28;20495;-81
2023/05/12 07:49:45;;;;;;;18.95;15.52;;;;;;;-148.88;100.00;-17125.47;5021617;28;20053;-81
2023/05/12 07:52:10;;;;;;;17.63;15.13;;;;;;;-148.88;100.00;-17125.47;5020446;28;20017;-80
2023/05/12 07:54:36;;;;;;;19.13;15.55;;;;;;;-148.88;100.00;-17125.47;5019162;28;20428;-80
2023/05/12 07:57:02;;;;;;;18.15;14.95;;;;;;;-148.88;100.00;-17125.47;5016031;28;20029;-80
2023/05/12 07:59:27;;;;;;;19.08;15.88;;;;;;;-148.88;100.00;-17125.47;5014187;28;20132;-80
2023/05/12 08:01:53;;;;;;;16.02;14.02;;;;;;;-148.88;100.00;-17125.47;4996171;28;20026;-80
2023/05/12 08:04:18;;;;;;;16.25;14.05;;;;;;;-148.88;100.00;-17125.47;5026365;28;20037;-81
2023/05/12 08:06:44;;;;;;;17.02;14.52;;;;;;;-148.88;100.00;-17125.47;5029907;28;20054;-81
2023/05/12 08:09:09;;;;;;;14.68;12.93;;;;;;;-148.88;100.00;-17125.47;5030147;28;20082;-81
2023/05/12 08:11:35;;;;;;;15.93;12.98;;;;;;;-148.88;100.00;-17125.47;5013408;28;20030;-81
2023/05/12 08:14:00;;;;;;;16.00;12.88;;;;;;;-148.88;100.00;-17125.47;5030974;28;20049;-81
2023/05/12 08:16:26;;;;;;;12.15;10.85;;;;;;;-148.88;100.00;-17125.47;5011863;28;20049;-81
2023/05/12 08:18:51;;;;;;;14.55;12.10;;;;;;;-148.88;100.00;-17125.47;5025264;28;20088;-81
2023/05/12 08:21:16;;;;;;;15.43;13.73;;;;;;;-148.88;100.00;-17125.47;4998782;28;20125;-81
2023/05/12 08:23:43;;;;;;;16.60;12.88;;;;;;;-148.88;100.00;-17125.47;4997603;28;20018;-81
2023/05/12 08:26:09;;;;;;;16.33;13.73;;;;;;;-148.88;100.00;-17125.47;5015285;28;20022;-81
2023/05/12 08:28:34;;;;;;;14.38;12.55;;;;;;;-148.88;100.00;-17125.47;4996940;28;20026;-80
2023/05/12 08:31:00;;;;;;;14.98;12.82;;;;;;;-148.88;100.00;-17125.47;5014405;28;20439;-79
2023/05/12 08:33:26;;;;;;;11.52;10.23;;;;;;;-148.88;100.00;-17125.47;5016811;28;20022;-80
2023/05/12 08:35:52;;;;;;;11.75;9.02;;;;;;;-148.88;100.00;-17125.47;5017670;28;20475;-80
2023/05/12 08:38:17;;;;;;;11.25;9.23;;;;;;;-148.88;100.00;-17125.47;4999686;28;20087;-80
2023/05/12 08:40:56;;;;;;;10.35;9.23;;;;;;;-148.88;100.00;-17125.47;5027611;28;20026;-81
2023/05/12 08:43:25;;;;;;;12.50;10.27;;;;;;;-148.88;100.00;-17125.47;5013186;28;20090;-79
2023/05/12 08:45:56;;;;;;;11.32;9.10;;;;;;;-148.88;100.00;-17125.47;5008148;28;20037;-79
2023/05/12 08:48:26;;;;;;;8.65;7.75;;;;;;;-148.88;100.00;-17125.47;5007372;28;20026;-78
2023/05/12 08:50:53;;;;;;;8.82;7.93;;;;;;;-148.88;100.00;-17125.47;5008409;28;20030;-78
2023/05/12 08:53:21;;;;;;;9.90;8.32;;;;;;;-148.88;100.00;-17125.47;5008928;28;20022;-78
2023/05/12 08:55:46;;;;;;;7.93;7.13;;;;;;;-148.88;100.00;-17125.47;5006577;28;20033;-78
2023/05/12 08:58:14;;;;;;;8.95;8.00;;;;;;;-148.88;100.00;-17125.47;5021726;28;20084;-78
2023/05/12 09:00:40;;;;;;;8.90;7.55;;;;;;;-148.88;100.00;-17125.47;5017490;22;20049;-78
2023/05/12 09:03:06;;;;;;;8.02;7.10;;;;;;;-148.88;100.00;-17125.47;5025044;28;20102;-78
2023/05/12 09:05:33;;;;;;;9.45;8.18;;;;;;;-148.88;100.00;-17125.47;5021438;28;20025;-78
2023/05/12 09:07:59;;;;;;;8.10;7.30;;;;;;;-148.88;100.00;-17125.47;5018097;28;20511;-78
2023/05/12 09:10:27;;;;;;;9.30;8.30;;;;;;;-148.88;100.00;-17125.47;5019417;28;20076;-78
2023/05/12 09:12:57;;;;;;;9.63;8.38;;;;;;;-148.88;100.00;-17125.47;5017260;28;20033;-78
2023/05/12 09:15:32;;;;;;;9.40;8.20;;;;;;;-148.88;100.00;-17125.47;5065787;22;20053;-84
2023/05/12 09:17:58;;;;;;;10.68;8.18;;;;;;;-148.88;100.00;-17125.47;5003436;28;20117;-85
2023/05/12 09:20:46;;;;;;;10.20;8.52;;;;;;;-148.88;100.00;-17125.47;5003218;28;20050;-85
2023/05/12 09:23:19;;;;;;;11.82;9.05;;;;;;;-148.88;100.00;-17125.47;5004881;28;20049;-86
2023/05/12 09:25:59;;;;;;;;;;;;;;;-148.88;99.83;-17125.47;5005690;28;20018;-85
2023/05/12 09:28:39;;;;;;;10.55;9.45;;;;;;;-148.88;96.33;-17125.47;5022680;28;19909;-85
2023/05/12 09:31:19;;;;;;;10.90;9.20;;;;;;;-148.88;93.50;-17125.47;5004386;28;20029;-84
2023/05/12 09:33:44;;;;;;;12.93;10.13;;;;;;;-148.88;96.54;-17125.47;5024642;28;20022;-85
2023/05/12 09:36:39;;;;;;;11.13;9.93;;;;;;;-148.88;100.00;-17125.47;5023887;28;20026;-86
2023/05/12 09:39:15;;;;;;;12.07;10.52;;;;;;;-148.88;99.65;-17125.47;5005489;28;20436;-84
2023/05/12 09:41:51;;;;;;;11.60;10.40;;;;;;;-148.88;95.71;-17125.47;5005237;28;20064;-86
2023/05/12 09:44:17;;;;;;;11.50;10.23;;;;;;;-148.88;92.44;-17125.47;5003599;28;20033;-87
2023/05/12 09:46:43;;;;;;;11.25;10.10;;;;;;;-148.88;90.95;-17125.47;5002053;28;20026;-86
2023/05/12 09:49:42;;;;;;;15.25;10.45;;;;;;;-148.88;91.02;-17125.47;5023703;28;20033;-86
2023/05/12 09:52:08;;;;;;;11.68;10.18;;;;;;;-148.88;88.16;-17125.47;5005121;28;20069;-84
2023/05/12 09:54:33;;;;;;;11.90;10.45;;;;;;;-148.88;88.82;-17125.47;5019575;28;20081;-85
2023/05/12 09:57:04;;;;;;;11.30;10.05;;;;;;;-148.88;93.01;-17125.47;5001341;28;20022;-86
2023/05/12 09:59:38;;;;;;;11.77;9.02;;;;;;;-148.88;86.72;-17125.47;5000465;28;20021;-84
2023/05/12 10:02:15;;;;;;;11.32;8.70;;;;;;;-148.88;86.41;-17125.47;5003149;28;20042;-85
2023/05/12 10:04:46;;;;;;;11.35;9.63;;;;;;;-148.88;85.53;-17125.47;5007336;22;20041;-78
2023/05/12 10:07:13;;;;;;;10.82;9.60;;;;;;;-148.88;92.68;-17125.47;4998284;28;20034;-77
2023/05/12 10:09:41;;;;;;;10.85;8.88;;;;;;;-148.88;82.00;-17125.47;5015137;28;20036;-77
2023/05/12 10:12:07;;;;;;;11.43;9.27;;;;;;;-148.88;82.59;-17125.47;5015429;28;20460;-77
2023/05/12 10:14:34;;;;;;;12.30;9.07;;;;;;;-148.88;82.88;-17125.47;5015220;28;20049;-78
2023/05/12 10:17:00;;;;;;;10.93;9.40;;;;;;;-148.88;81.91;-17125.47;5015767;28;20029;-77
2023/05/12 10:19:29;;;;;;;12.07;9.93;;;;;;;-148.88;88.41;-17125.47;4998652;28;20076;-77
2023/05/12 10:21:55;;;;;;;11.02;9.40;;;;;;;-148.88;85.69;-17125.47;5016369;28;20057;-78
2023/05/12 10:24:25;;;;;;;10.25;8.90;;;;;;;-148.88;83.77;-17125.47;5015460;28;20033;-78
2023/05/12 10:26:53;;;;;;;11.63;9.30;;;;;;;-148.88;79.76;-17125.47;5016130;28;20026;-77
2023/05/12 10:29:19;;;;;;;9.80;8.50;;;;;;;-148.88;81.91;-17125.47;4998364;28;20083;-77
2023/05/12 10:31:45;;;;;;;11.77;9.02;;;;;;;-148.88;76.90;-17125.47;4998903;28;20034;-78
2023/05/12 10:34:20;;;;;;;11.73;8.07;;;;;;;-148.88;74.21;-17125.47;5017340;28;20110;-78
2023/05/12 10:36:51;;;;;;;9.38;8.05;;;;;;;-148.88;72.86;-17125.47;4998522;28;20030;-80
2023/05/12 10:39:17;;;;;;;10.73;8.45;;;;;;;-148.88;75.04;-17125.47;5018332;28;20036;-78
2023/05/12 10:41:42;;;;;;;9.50;8.57;;;;;;;-148.88;76.50;-17125.47;5015668;28;20029;-79
2023/05/12 10:44:11;;;;;;;10.93;8.85;;;;;;;-148.88;78.49;-17125.47;5015325;28;20014;-78